HTSU

Sumbawanga Airport

Sumbawanga, Tanzania
METAR HTSU 092100Z 00000KT 9999 -RA FEW017 FEW019CB BKN080 17/16 Q1023
Observed Flight Rules
Dec-9 @ 21:00 UTC (an hour ago) Visual Flight Rules
Visibility Clouds Conditions
10,000+ meters
  • Few at 1,700' AGL
  • Few at 1,900' AGL
  • Broken at 8,000' AGL
  • Light Rain
Temperatures Readings
Current 17°C / 63°F
Dewpoint 16°C / 61°F
Humidity 94%
Altimeter 30.21" Hg
Pressure 1023 hPa
Elevation 1804
METAR HTSU 092100Z 00000KT 9999 -RA FEW017 FEW019CB BKN080 17/16 Q1023
Observed Flight Rules
Dec-9 @ 21:00 UTC
(an hour ago)
VFR
Clouds
  • Few at 1,700' AGL
  • Few at 1,900' AGL
  • Broken at 8,000' AGL
Conditions
  • Light Rain
Temperature Dewpoint
17°C / 63°F 16°C / 61°F
Humidity Altimeter Pressure
94% 30.21" Hg 1023 hPa